Time;durP1;ratioP1;P1;durP2;ratioP2;P2;SDS_P1;SDS_P2;PMS_P1;PMS_P2;Temp;Humidity;BMP_temperature;BMP_pressure;BME280_temperature;BME280_humidity;BME280_pressure;Samples;Min_cycle;Max_cycle;Signal;HPM_P1;HPM_P2
2022/09/11 00:01:19;;;;;;;65.45;29.35;;;;;;;14.05;100.00;101628.41;4981014;28;20042;-68
2022/09/11 00:03:46;;;;;;;75.53;30.58;;;;;;;14.21;100.00;101623.78;4964699;28;20590;-68
2022/09/11 00:06:21;;;;;;;80.55;31.52;;;;;;;14.37;100.00;101625.44;4978431;28;20776;-68
2022/09/11 00:08:59;;;;;;;72.30;32.78;;;;;;;14.36;100.00;101623.72;4979514;28;20126;-68
2022/09/11 00:11:28;;;;;;;71.82;32.72;;;;;;;14.45;100.00;101625.78;4968093;28;20061;-68
2022/09/11 00:13:55;;;;;;;73.90;31.83;;;;;;;14.42;100.00;101621.47;4974154;28;20035;-68
2022/09/11 00:16:28;;;;;;;81.75;31.83;;;;;;;14.46;100.00;101624.84;4975112;28;20053;-69
2022/09/11 00:19:02;;;;;;;75.47;31.20;;;;;;;14.46;100.00;101630.19;4982771;28;20113;-68
2022/09/11 00:21:28;;;;;;;75.47;32.83;;;;;;;14.31;100.00;101631.19;4981433;28;20046;-68
2022/09/11 00:23:54;;;;;;;69.82;30.13;;;;;;;14.37;100.00;101634.34;4981356;28;20030;-68
2022/09/11 00:26:26;;;;;;;76.93;31.73;;;;;;;14.34;100.00;101631.84;4982505;28;20540;-68
2022/09/11 00:28:56;;;;;;;78.68;32.15;;;;;;;14.45;100.00;101642.72;4985725;28;20066;-68
2022/09/11 00:31:26;;;;;;;77.70;32.03;;;;;;;14.53;100.00;101633.34;4981147;28;20049;-68
2022/09/11 00:33:55;;;;;;;78.88;31.17;;;;;;;14.59;100.00;101641.00;4981536;28;20166;-68
2022/09/11 00:36:28;;;;;;;69.97;30.40;;;;;;;14.71;100.00;101649.09;4981459;28;20045;-68
2022/09/11 00:39:01;;;;;;;;;;;;;;;14.77;100.00;101645.13;4963860;28;20043;-68
2022/09/11 00:41:35;;;;;;;67.15;30.65;;;;;;;14.77;100.00;101651.34;4982616;28;19921;-67
2022/09/11 00:44:06;;;;;;;72.90;29.85;;;;;;;14.79;100.00;101648.53;4973141;28;20103;-68
2022/09/11 00:46:47;;;;;;;69.57;30.50;;;;;;;14.83;100.00;101643.84;4989508;28;20069;-68
2022/09/11 00:49:20;;;;;;;61.75;27.50;;;;;;;14.70;100.00;101639.28;4964207;28;20047;-68
2022/09/11 00:51:52;;;;;;;63.28;28.70;;;;;;;14.64;100.00;101637.03;4976097;28;20069;-68
2022/09/11 00:54:23;;;;;;;74.80;30.17;;;;;;;14.61;100.00;101644.41;4977522;28;20759;-69
2022/09/11 00:56:51;;;;;;;74.50;29.85;;;;;;;14.59;100.00;101638.31;4997133;28;20045;-68
2022/09/11 00:59:25;;;;;;;76.57;30.33;;;;;;;14.48;100.00;101645.25;4978051;28;20046;-67
2022/09/11 01:01:54;;;;;;;64.03;28.30;;;;;;;14.46;100.00;101644.47;4968554;28;20339;-68
2022/09/11 01:04:23;;;;;;;69.53;29.80;;;;;;;14.46;100.00;101646.31;4980295;28;20437;-69
2022/09/11 01:06:55;;;;;;;76.18;29.55;;;;;;;14.49;100.00;101652.34;4981086;28;20038;-68
2022/09/11 01:09:21;;;;;;;77.50;31.08;;;;;;;14.51;100.00;101649.56;4975702;28;20110;-68
2022/09/11 01:12:04;;;;;;;70.65;31.05;;;;;;;14.49;100.00;101648.78;4976390;28;20057;-68
2022/09/11 01:14:48;;;;;;;64.15;29.83;;;;;;;14.49;100.00;101646.97;4967332;28;20046;-68
2022/09/11 01:17:29;;;;;;;78.55;30.65;;;;;;;14.39;100.00;101647.66;4977184;28;20046;-68
2022/09/11 01:20:13;;;;;;;68.88;30.83;;;;;;;14.33;100.00;101648.94;4979485;28;20035;-68
2022/09/11 01:23:04;;;;;;;75.97;32.55;;;;;;;14.24;100.00;101641.47;4980435;28;20505;-68
2022/09/11 01:25:35;;;;;;;78.45;30.83;;;;;;;14.20;100.00;101650.69;4967479;28;20174;-68
2022/09/11 01:28:09;;;;;;;67.40;30.88;;;;;;;14.17;100.00;101642.84;4976773;28;20035;-68
2022/09/11 01:30:49;;;;;;;70.82;31.88;;;;;;;14.09;100.00;101648.72;4977221;28;20438;-68
2022/09/11 01:33:24;;;;;;;86.00;33.15;;;;;;;14.16;100.00;101659.91;4995612;28;20034;-68
2022/09/11 01:36:06;;;;;;;75.30;32.00;;;;;;;14.15;100.00;101652.81;4983399;28;20241;-68
2022/09/11 01:39:02;;;;;;;76.15;31.60;;;;;;;14.07;100.00;101661.38;4989623;28;20887;-68
2022/09/11 01:41:44;;;;;;;79.10;32.40;;;;;;;14.07;100.00;101655.16;4990873;28;20046;-68
2022/09/11 01:44:24;;;;;;;79.35;31.83;;;;;;;14.08;100.00;101656.88;4996888;28;20038;-68
2022/09/11 01:46:54;;;;;;;75.88;32.03;;;;;;;14.04;100.00;101658.88;4975560;28;20065;-68
2022/09/11 01:49:31;;;;;;;75.35;31.75;;;;;;;13.96;100.00;101658.53;4979467;28;20658;-68
2022/09/11 01:52:02;;;;;;;80.10;33.08;;;;;;;13.96;100.00;101658.53;4983352;28;20731;-68
2022/09/11 01:54:41;;;;;;;72.97;30.92;;;;;;;13.91;100.00;101656.13;4995070;28;20142;-67
2022/09/11 01:57:15;;;;;;;81.22;32.85;;;;;;;13.87;100.00;101657.28;4983245;28;20034;-67
2022/09/11 01:59:54;;;;;;;90.13;34.58;;;;;;;13.93;100.00;101666.75;4982000;28;20045;-68
2022/09/11 02:02:27;;;;;;;76.75;31.25;;;;;;;13.85;100.00;101667.22;4959145;28;20039;-68
2022/09/11 02:05:14;;;;;;;74.72;32.08;;;;;;;13.86;100.00;101671.66;4984354;28;20042;-68
2022/09/11 02:07:54;;;;;;;79.97;33.35;;;;;;;13.85;100.00;101667.22;4982617;28;20034;-68
2022/09/11 02:10:31;;;;;;;93.65;35.30;;;;;;;13.90;100.00;101666.94;4986504;28;20120;-68
2022/09/11 02:13:13;;;;;;;88.10;33.67;;;;;;;13.80;100.00;101672.03;4969604;28;20054;-68
2022/09/11 02:15:49;;;;;;;98.47;36.28;;;;;;;13.79;100.00;101673.00;4998669;28;20045;-68
2022/09/11 02:18:23;;;;;;;80.45;32.10;;;;;;;13.59;100.00;101676.06;4981963;28;20599;-68
2022/09/11 02:20:50;;;;;;;70.95;28.42;;;;;;;13.48;100.00;101674.94;4982400;28;20068;-68
2022/09/11 02:23:15;;;;;;;69.68;30.77;;;;;;;13.50;100.00;101680.19;4982691;28;20053;-68
2022/09/11 02:25:47;;;;;;;73.97;30.83;;;;;;;13.50;100.00;101682.00;4982405;28;20503;-68
2022/09/11 02:28:13;;;;;;;78.45;33.33;;;;;;;13.48;100.00;101682.97;4966556;28;20038;-68
2022/09/11 02:30:41;;;;;;;77.28;32.75;;;;;;;13.52;100.00;101682.78;4981640;28;20038;-67
2022/09/11 02:33:31;;;;;;;76.40;30.58;;;;;;;13.49;100.00;101691.88;4986308;28;20046;-68
2022/09/11 02:36:21;;;;;;;97.47;35.70;;;;;;;13.50;100.00;101688.22;4977685;28;20565;-68
2022/09/11 02:39:13;;;;;;;56.03;23.23;;;;;;;13.36;100.00;101693.59;4982214;28;20042;-67
2022/09/11 02:41:54;;;;;;;80.97;32.60;;;;;;;13.47;100.00;101691.09;4983671;28;20203;-67
2022/09/11 02:44:23;;;;;;;77.88;30.55;;;;;;;13.33;100.00;101691.09;4971833;28;20061;-68
2022/09/11 02:47:27;;;;;;;78.10;30.25;;;;;;;13.30;100.00;101691.25;4994779;28;20814;-68
2022/09/11 02:50:09;;;;;;;58.85;25.58;;;;;;;13.17;100.00;101700.03;4967780;28;20059;-68
2022/09/11 02:52:55;;;;;;;68.25;28.20;;;;;;;13.25;100.00;101698.72;4983650;28;20047;-68
2022/09/11 02:55:34;;;;;;;57.28;24.20;;;;;;;13.07;100.00;101700.69;4980767;28;20850;-68
2022/09/11 02:58:15;;;;;;;153.52;21.15;;;;;;;12.92;100.00;101695.28;4998953;28;20044;-68
2022/09/11 03:00:41;;;;;;;73.35;21.00;;;;;;;12.93;100.00;101699.69;4981054;28;20573;-68
2022/09/11 03:03:09;;;;;;;117.20;20.58;;;;;;;12.88;100.00;101692.88;4982092;28;20041;-68
2022/09/11 03:05:39;;;;;;;50.22;21.30;;;;;;;12.90;100.00;101702.56;4981142;28;20038;-68
2022/09/11 03:08:06;;;;;;;42.35;19.02;;;;;;;12.90;100.00;101701.66;4970668;28;20495;-68
2022/09/11 03:10:32;;;;;;;60.33;26.42;;;;;;;13.02;100.00;101702.78;4981368;28;20035;-68
2022/09/11 03:12:58;;;;;;;48.33;22.25;;;;;;;13.00;100.00;101702.84;4982335;28;20766;-68
2022/09/11 03:15:25;;;;;;;58.83;24.52;;;;;;;13.05;100.00;101705.25;4982706;28;20057;-68
2022/09/11 03:17:51;;;;;;;63.08;25.67;;;;;;;12.99;100.00;101703.81;4981271;28;20045;-68
2022/09/11 03:20:21;;;;;;;68.03;28.10;;;;;;;12.90;100.00;101712.38;4978773;28;20189;-68
2022/09/11 03:22:46;;;;;;;70.30;29.60;;;;;;;12.92;100.00;101710.50;4982214;28;20092;-68
2022/09/11 03:25:14;;;;;;;35.35;14.77;;;;;;;12.63;100.00;101713.03;4982239;28;20494;-68
2022/09/11 03:27:41;;;;;;;22.52;12.38;;;;;;;12.74;100.00;101716.91;4972345;28;20061;-68
2022/09/11 03:30:10;;;;;;;31.67;13.65;;;;;;;12.72;100.00;101710.78;4995430;28;20049;-68
2022/09/11 03:32:35;;;;;;;36.60;15.20;;;;;;;12.67;100.00;101714.59;4976753;28;20035;-68
2022/09/11 03:35:01;;;;;;;48.28;21.02;;;;;;;12.66;100.00;101714.69;4976308;28;20392;-68
2022/09/11 03:37:29;;;;;;;30.92;15.57;;;;;;;12.62;100.00;101713.16;4962390;28;20426;-68
2022/09/11 03:40:05;;;;;;;35.88;16.00;;;;;;;12.66;100.00;101718.22;4995393;28;20137;-68
2022/09/11 03:42:34;;;;;;;32.47;15.25;;;;;;;12.59;100.00;101726.69;4983708;28;20042;-67
2022/09/11 03:45:00;;;;;;;37.47;15.23;;;;;;;12.48;100.00;101727.31;4974697;28;20830;-68
2022/09/11 03:47:25;;;;;;;36.35;15.15;;;;;;;12.48;100.00;101721.97;4963317;28;20562;-68
2022/09/11 03:49:53;;;;;;;47.13;18.85;;;;;;;12.58;100.00;101725.81;4975079;28;20081;-68
2022/09/11 03:52:19;;;;;;;44.88;19.10;;;;;;;12.57;100.00;101731.28;4961845;28;20046;-69
2022/09/11 03:54:46;;;;;;;66.03;25.65;;;;;;;12.66;100.00;101728.94;4981533;28;20507;-69
2022/09/11 03:57:14;;;;;;;69.95;25.40;;;;;;;12.69;100.00;101717.19;4995893;28;20478;-68
2022/09/11 03:59:40;;;;;;;83.88;24.90;;;;;;;12.60;100.00;101729.28;4973685;28;20046;-68
2022/09/11 04:02:06;;;;;;;76.65;20.17;;;;;;;12.56;100.00;101729.56;4989156;28;20768;-68
2022/09/11 04:04:31;;;;;;;65.55;17.83;;;;;;;12.54;100.00;101732.31;4957426;28;20034;-69
2022/09/11 04:06:57;;;;;;;69.20;19.63;;;;;;;12.52;100.00;101731.53;4981069;28;20041;-68
2022/09/11 04:09:24;;;;;;;96.50;23.80;;;;;;;12.51;100.00;101727.16;4980039;28;20046;-68
2022/09/11 04:11:50;;;;;;;59.83;21.75;;;;;;;12.61;100.00;101732.84;4981444;28;20536;-68
2022/09/11 04:14:21;;;;;;;191.10;27.83;;;;;;;12.59;100.00;101727.53;4979260;28;20101;-69
2022/09/11 04:16:47;;;;;;;89.20;23.52;;;;;;;12.56;100.00;101733.09;4979922;28;20035;-68
2022/09/11 04:19:13;;;;;;;115.57;23.05;;;;;;;12.58;100.00;101728.50;4977544;28;20057;-68
2022/09/11 04:21:41;;;;;;;73.47;20.33;;;;;;;12.57;100.00;101733.94;4982447;28;20042;-68
2022/09/11 04:24:08;;;;;;;69.65;19.70;;;;;;;12.59;100.00;101737.38;4982863;28;20057;-67
2022/09/11 04:26:34;;;;;;;74.47;19.98;;;;;;;12.56;100.00;101729.56;4981956;28;20042;-68
2022/09/11 04:29:21;;;;;;;103.90;24.38;;;;;;;12.54;100.00;101734.97;4969982;28;20047;-68
2022/09/11 04:31:47;;;;;;;76.40;21.25;;;;;;;12.48;100.00;101729.97;4980940;28;20594;-68
2022/09/11 04:34:14;;;;;;;76.50;22.02;;;;;;;12.50;100.00;101737.91;4974561;28;20525;-68
2022/09/11 04:36:39;;;;;;;58.97;23.10;;;;;;;12.51;100.00;101739.66;4964039;28;20042;-68
2022/09/11 04:39:10;;;;;;;60.58;21.55;;;;;;;12.53;100.00;101748.44;4961867;28;20093;-68
2022/09/11 04:41:36;;;;;;;57.45;21.08;;;;;;;12.51;100.00;101742.34;4972286;28;20616;-68
2022/09/11 04:44:11;;;;;;;85.07;20.38;;;;;;;12.57;100.00;101750.88;4980911;28;20030;-68
2022/09/11 04:46:41;;;;;;;147.10;27.10;;;;;;;12.56;100.00;101745.63;4998888;28;20721;-68
2022/09/11 04:49:10;;;;;;;68.43;22.13;;;;;;;12.65;100.00;101740.59;4970363;28;20034;-68
2022/09/11 04:51:37;;;;;;;208.27;30.48;;;;;;;12.52;100.00;101744.91;4980467;28;20053;-68
2022/09/11 04:54:05;;;;;;;131.80;24.13;;;;;;;12.45;100.00;101735.53;4967469;28;20042;-68
2022/09/11 04:56:36;;;;;;;104.15;21.70;;;;;;;12.47;100.00;101736.28;4985832;28;20050;-68
2022/09/11 04:59:14;;;;;;;168.50;27.48;;;;;;;12.38;100.00;101742.16;4979497;28;20106;-68
2022/09/11 05:01:48;;;;;;;205.25;27.98;;;;;;;12.32;100.00;101745.19;4981029;28;20077;-68
2022/09/11 05:04:17;;;;;;;106.00;22.42;;;;;;;12.39;100.00;101751.91;4981031;28;20486;-68
2022/09/11 05:06:47;;;;;;;62.22;20.08;;;;;;;12.47;100.00;101748.81;4980527;28;20065;-68
2022/09/11 05:09:16;;;;;;;130.93;25.75;;;;;;;12.48;100.00;101747.84;4972569;28;20035;-68
2022/09/11 05:11:45;;;;;;;117.90;24.75;;;;;;;12.54;100.00;101759.06;4983373;28;20038;-73
2022/09/11 05:14:11;;;;;;;98.30;22.15;;;;;;;12.57;100.00;101760.72;4992448;28;20046;-68
2022/09/11 05:16:38;;;;;;;85.45;22.60;;;;;;;12.64;100.00;101765.59;4984613;28;20473;-68
2022/09/11 05:19:04;;;;;;;91.45;22.63;;;;;;;12.66;100.00;101769.06;4986170;28;20034;-68
2022/09/11 05:21:35;;;;;;;91.90;22.83;;;;;;;12.65;100.00;101774.50;4992961;28;20058;-68
2022/09/11 05:24:02;;;;;;;88.22;22.13;;;;;;;12.76;100.00;101780.13;4993979;28;20042;-68
2022/09/11 05:26:36;;;;;;;138.93;25.85;;;;;;;12.61;100.00;101778.31;4974036;28;20092;-67
2022/09/11 05:29:22;;;;;;;102.93;25.10;;;;;;;12.66;100.00;101784.28;4983264;28;20077;-68
2022/09/11 05:31:57;;;;;;;87.72;26.33;;;;;;;12.73;100.00;101787.44;5000701;28;20042;-68
2022/09/11 05:34:23;;;;;;;91.85;26.13;;;;;;;12.89;100.00;101791.81;4993251;28;20066;-68
2022/09/11 05:36:50;;;;;;;115.00;26.55;;;;;;;12.99;100.00;101802.88;4980933;28;20043;-68
2022/09/11 05:39:16;;;;;;;84.13;25.45;;;;;;;13.08;100.00;101791.63;4972464;28;20795;-68
2022/09/11 05:41:42;;;;;;;136.60;29.13;;;;;;;13.10;100.00;101795.09;4984221;28;20043;-68
2022/09/11 05:44:07;;;;;;;89.30;26.15;;;;;;;13.28;100.00;101797.66;5000394;28;20034;-67
2022/09/11 05:46:35;;;;;;;102.47;25.05;;;;;;;13.24;100.00;101805.00;4981749;28;20046;-68
2022/09/11 05:49:02;;;;;;;134.70;28.27;;;;;;;13.37;100.00;101803.34;4965051;28;20035;-68
2022/09/11 05:51:34;;;;;;;177.35;28.95;;;;;;;13.43;100.00;101800.28;4964282;28;20062;-68
2022/09/11 05:54:00;;;;;;;201.45;30.05;;;;;;;13.24;100.00;101805.00;5000372;28;20129;-68
2022/09/11 05:56:27;;;;;;;186.45;29.50;;;;;;;13.23;100.00;101805.97;4974232;28;20679;-68
2022/09/11 05:58:57;;;;;;;172.70;28.55;;;;;;;13.23;100.00;101807.78;4981296;28;20042;-68
2022/09/11 06:01:27;;;;;;;212.00;31.77;;;;;;;13.16;100.00;101820.66;4983505;28;20069;-67
2022/09/11 06:04:13;;;;;;;170.02;29.23;;;;;;;13.27;100.00;101806.66;4973634;28;20050;-68
2022/09/11 06:06:42;;;;;;;219.13;30.60;;;;;;;13.43;100.00;101821.72;4968475;28;20070;-68
2022/09/11 06:09:08;;;;;;;110.25;25.42;;;;;;;13.69;100.00;101820.13;4984050;28;20072;-68
2022/09/11 06:11:33;;;;;;;94.32;26.58;;;;;;;13.59;100.00;101816.28;4970949;28;20034;-68
2022/09/11 06:14:00;;;;;;;174.95;28.27;;;;;;;13.60;100.00;101823.38;4983011;28;20097;-68
2022/09/11 06:16:28;;;;;;;127.63;26.30;;;;;;;13.66;100.00;101836.44;4983415;28;20112;-68
2022/09/11 06:18:57;;;;;;;136.40;28.70;;;;;;;13.70;100.00;101834.41;4982885;28;20220;-68
2022/09/11 06:21:26;;;;;;;191.95;30.75;;;;;;;13.67;100.00;101837.28;4982789;28;20062;-68
2022/09/11 06:24:01;;;;;;;103.05;26.35;;;;;;;13.88;100.00;101837.78;4956397;28;20446;-68
2022/09/11 06:26:28;;;;;;;138.60;29.15;;;;;;;14.12;100.00;101838.97;4973798;28;20071;-68
2022/09/11 06:28:56;;;;;;;106.65;27.25;;;;;;;14.27;100.00;101838.97;4979703;28;20578;-69
2022/09/11 06:31:24;;;;;;;185.57;32.13;;;;;;;14.30;100.00;101838.75;4976207;28;20092;-68
2022/09/11 06:33:57;;;;;;;109.90;29.10;;;;;;;14.55;100.00;101838.94;4957463;28;20054;-68
2022/09/11 06:36:26;;;;;;;128.93;26.95;;;;;;;14.47;100.00;101843.94;4975867;28;20050;-68
2022/09/11 06:38:53;;;;;;;205.75;31.30;;;;;;;14.25;100.00;101841.72;4991287;28;20805;-69
2022/09/11 06:41:24;;;;;;;173.52;30.25;;;;;;;14.39;100.00;101843.53;4991576;28;20070;-68
2022/09/11 06:43:53;;;;;;;300.88;35.17;;;;;;;14.45;100.00;101849.38;4977716;28;20030;-68
2022/09/11 06:46:21;;;;;;;276.65;34.10;;;;;;;14.43;100.00;101843.25;4976780;28;20838;-68
2022/09/11 06:48:49;;;;;;;281.00;35.25;;;;;;;14.33;100.00;101842.13;4982699;28;20026;-68
2022/09/11 06:51:23;;;;;;;279.10;32.95;;;;;;;14.41;100.00;101842.50;4975950;28;20039;-68
2022/09/11 06:53:56;;;;;;;223.40;32.50;;;;;;;14.54;100.00;101841.75;4985280;28;20046;-69
2022/09/11 06:56:23;;;;;;;216.85;31.75;;;;;;;14.88;100.00;101840.44;4975389;28;20056;-68
2022/09/11 06:58:49;;;;;;;190.90;29.83;;;;;;;14.84;100.00;101842.44;4970735;28;20061;-68
2022/09/11 07:01:19;;;;;;;132.90;27.17;;;;;;;14.91;100.00;101842.88;4975626;28;20047;-68
2022/09/11 07:03:52;;;;;;;126.95;29.80;;;;;;;14.84;100.00;101839.75;4981351;28;20160;-69
2022/09/11 07:06:29;;;;;;;124.75;26.63;;;;;;;14.94;100.00;101837.34;4983633;28;20076;-68
2022/09/11 07:09:01;;;;;;;163.70;31.30;;;;;;;15.47;100.00;101835.59;4961331;28;20042;-68
2022/09/11 07:11:45;;;;;;;126.57;28.27;;;;;;;15.38;100.00;101844.25;5000439;28;20050;-68
2022/09/11 07:14:11;;;;;;;71.00;27.05;;;;;;;15.71;100.00;101841.13;4970723;28;20046;-69
2022/09/11 07:16:39;;;;;;;97.90;27.27;;;;;;;16.01;100.00;101849.75;4975939;28;20870;-68
2022/09/11 07:19:09;;;;;;;100.38;26.85;;;;;;;15.83;100.00;101844.81;4966508;28;20754;-68
2022/09/11 07:21:36;;;;;;;100.40;26.65;;;;;;;15.61;100.00;101848.91;4995900;28;20035;-68
2022/09/11 07:24:05;;;;;;;130.77;28.83;;;;;;;15.60;100.00;101846.34;4959325;28;20049;-69
2022/09/11 07:26:38;;;;;;;122.75;27.13;;;;;;;15.71;100.00;101850.06;4977786;28;20118;-68
2022/09/11 07:29:13;;;;;;;81.75;27.77;;;;;;;15.99;100.00;101853.50;4997970;28;20042;-68
2022/09/11 07:31:46;;;;;;;93.85;26.80;;;;;;;15.76;100.00;101857.78;4963798;28;20125;-68
2022/09/11 07:34:13;;;;;;;77.65;26.77;;;;;;;16.13;100.00;101845.34;4970723;28;20050;-68
2022/09/11 07:36:40;;;;;;;87.80;28.77;;;;;;;16.02;100.00;101847.94;4973914;28;20043;-69
2022/09/11 07:39:07;;;;;;;80.95;26.48;;;;;;;16.05;100.00;101853.09;4990480;28;20057;-69
2022/09/11 07:41:49;;;;;;;91.07;26.65;;;;;;;16.07;100.00;101861.94;4971180;28;20510;-69
2022/09/11 07:44:22;;;;;;;76.00;26.77;;;;;;;16.39;100.00;101862.31;4961224;28;20499;-70
2022/09/11 07:46:48;;;;;;;109.28;28.02;;;;;;;16.27;100.00;101868.59;4974643;28;20054;-69
2022/09/11 07:49:14;;;;;;;91.22;27.05;;;;;;;16.51;100.00;101861.44;4983097;28;20042;-70
2022/09/11 07:51:41;;;;;;;72.10;26.30;;;;;;;16.49;100.00;101868.78;4986008;28;20045;-69
2022/09/11 07:54:08;;;;;;;73.47;26.58;;;;;;;16.59;100.00;101866.28;4996884;28;20053;-70
2022/09/11 07:56:35;;;;;;;78.07;27.08;;;;;;;16.77;100.00;101864.97;4983487;28;20102;-70
2022/09/11 07:59:06;;;;;;;83.13;28.83;;;;;;;16.62;100.00;101868.75;4971925;28;20038;-69
2022/09/11 08:01:33;;;;;;;62.95;27.08;;;;;;;16.64;100.00;101874.03;4967133;28;20061;-71
2022/09/11 08:04:08;;;;;;;63.75;26.75;;;;;;;16.94;100.00;101882.59;4981319;28;20068;-70
2022/09/11 08:06:38;;;;;;;65.53;27.35;;;;;;;16.94;100.00;101885.28;4982005;28;20027;-70
2022/09/11 08:09:14;;;;;;;56.72;28.05;;;;;;;17.14;100.00;101883.81;4993121;28;20035;-70
2022/09/11 08:11:47;;;;;;;50.22;26.75;;;;;;;17.41;100.00;101875.47;4977492;28;20030;-69
2022/09/11 08:14:16;;;;;;;59.47;26.85;;;;;;;17.46;100.00;101884.06;4975108;28;20065;-70
2022/09/11 08:16:42;;;;;;;61.15;28.17;;;;;;;17.25;100.00;101883.00;4986505;28;20085;-72
2022/09/11 08:19:15;;;;;;;50.05;27.27;;;;;;;17.30;100.00;101881.69;4986332;28;20047;-70
2022/09/11 08:21:41;;;;;;;58.28;28.50;;;;;;;16.91;100.00;101884.63;4981815;28;20392;-70
2022/09/11 08:24:07;;;;;;;61.03;29.73;;;;;;;17.32;100.00;101881.59;4985728;28;20744;-70
2022/09/11 08:26:35;;;;;;;55.35;28.83;;;;;;;17.45;100.00;101881.50;4988606;28;20056;-70
2022/09/11 08:29:01;;;;;;;56.15;31.40;;;;;;;17.42;100.00;101884.41;4989875;28;20068;-70
2022/09/11 08:31:32;;;;;;;55.78;30.60;;;;;;;18.00;100.00;101883.53;4976582;28;20042;-70
2022/09/11 08:34:09;;;;;;;51.75;29.17;;;;;;;18.02;100.00;101883.41;5003815;28;20065;-70
2022/09/11 08:36:35;;;;;;;58.67;30.98;;;;;;;17.69;100.00;101892.28;4980045;28;20038;-71
2022/09/11 08:39:02;;;;;;;59.90;30.02;;;;;;;17.54;100.00;101897.84;4983126;28;20053;-70
2022/09/11 08:41:52;;;;;;;;;;;;;;;18.06;100.00;101904.66;4976190;28;20042;-75
2022/09/11 08:44:29;;;;;;;67.38;33.35;;;;;;;18.32;100.00;101908.03;4977682;28;19921;-70
2022/09/11 08:47:21;;;;;;;62.20;31.67;;;;;;;18.45;100.00;101902.50;4984261;28;20046;-71
2022/09/11 08:50:08;;;;;;;59.27;32.50;;;;;;;18.71;100.00;101905.84;4979549;28;20031;-70
2022/09/11 08:52:35;;;;;;;62.92;32.72;;;;;;;18.60;100.00;101912.06;4985757;28;20098;-70
2022/09/11 08:55:01;;;;;;;60.15;33.35;;;;;;;18.81;100.00;101914.91;4979261;28;20047;-70
2022/09/11 08:57:30;;;;;;;64.32;34.47;;;;;;;19.06;100.00;101910.22;4983208;28;20630;-70
2022/09/11 09:00:01;;;;;;;63.15;34.17;;;;;;;18.68;100.00;101916.03;4995639;28;20567;-70
2022/09/11 09:03:06;;;;;;;58.58;33.40;;;;;;;19.01;100.00;101913.28;5004687;28;20077;-70
2022/09/11 09:05:42;;;;;;;59.85;33.38;;;;;;;19.34;100.00;101920.47;4992167;28;20057;-70
2022/09/11 09:08:36;;;;;;;58.90;32.08;;;;;;;19.52;100.00;101914.50;4982803;28;20046;-70
2022/09/11 09:11:18;;;;;;;59.53;34.13;;;;;;;19.22;100.00;101923.31;4999188;28;20054;-70
2022/09/11 09:13:58;;;;;;;59.03;31.55;;;;;;;19.25;100.00;101925.78;4981202;28;20042;-69
2022/09/11 09:16:42;;;;;;;48.13;30.10;;;;;;;19.20;100.00;101923.47;4990352;28;20126;-70
2022/09/11 09:19:29;;;;;;;50.17;31.65;;;;;;;19.09;100.00;101931.59;4990931;28;20417;-70
2022/09/11 09:22:06;;;;;;;58.13;31.85;;;;;;;19.50;100.00;101930.00;4979896;28;20039;-69
2022/09/11 09:24:42;;;;;;;59.40;31.50;;;;;;;19.27;100.00;101930.06;4987646;28;20086;-70
2022/09/11 09:27:16;;;;;;;54.30;32.90;;;;;;;19.08;100.00;101922.63;4981391;28;20450;-70
2022/09/11 09:29:46;;;;;;;54.97;30.95;;;;;;;18.78;100.00;101927.84;4985986;28;20121;-70
2022/09/11 09:32:22;;;;;;;57.17;31.40;;;;;;;18.32;100.00;101924.25;4999914;28;20069;-69
2022/09/11 09:34:54;;;;;;;57.50;32.60;;;;;;;18.44;100.00;101924.25;4985855;28;20081;-70
2022/09/11 09:37:22;;;;;;;55.20;32.28;;;;;;;19.16;100.00;101922.00;4980806;28;20042;-69
2022/09/11 09:39:49;;;;;;;54.20;31.80;;;;;;;18.89;100.00;101928.69;4982253;28;20513;-70
2022/09/11 09:42:23;;;;;;;52.55;30.77;;;;;;;19.30;100.00;101929.81;4981271;28;20741;-71
2022/09/11 09:45:17;;;;;;;55.63;32.63;;;;;;;19.49;100.00;101933.72;4997139;28;20065;-68
2022/09/11 09:47:53;;;;;;;52.15;30.20;;;;;;;19.71;100.00;101928.22;4987198;28;20123;-69
2022/09/11 09:50:26;;;;;;;54.08;31.55;;;;;;;19.98;100.00;101922.34;4983554;28;20085;-68
2022/09/11 09:53:01;;;;;;;;;;;;;;;20.38;100.00;101924.25;4988028;28;20046;-68
2022/09/11 09:55:26;;;;;;;51.25;30.27;;;;;;;19.69;100.00;101930.22;4983173;28;19925;-69
2022/09/11 09:57:52;;;;;;;52.08;31.48;;;;;;;19.55;100.00;101925.06;4989919;28;20482;-69
2022/09/11 10:00:19;;;;;;;47.92;29.33;;;;;;;19.05;100.00;101936.41;4973245;28;20043;-70
2022/09/11 10:02:55;;;;;;;50.33;31.17;;;;;;;19.21;100.00;101933.28;4985326;28;20761;-69
2022/09/11 10:05:32;;;;;;;54.65;30.98;;;;;;;19.32;100.00;101930.53;4972469;28;20070;-70
2022/09/11 10:08:18;;;;;;;54.58;30.75;;;;;;;19.72;100.00;101934.50;4984747;28;20046;-70
2022/09/11 10:10:56;;;;;;;53.30;30.23;;;;;;;19.89;100.00;101937.50;4979117;28;20065;-69
2022/09/11 10:13:30;;;;;;;46.85;28.55;;;;;;;20.17;100.00;101930.56;4966281;28;20042;-69
2022/09/11 10:15:58;;;;;;;53.30;29.80;;;;;;;19.75;100.00;101936.97;4978467;28;20068;-70
2022/09/11 10:18:38;;;;;;;48.92;30.55;;;;;;;20.05;100.00;101928.91;4974132;28;20077;-72
2022/09/11 10:21:10;;;;;;;47.10;29.15;;;;;;;19.92;100.00;101934.50;4984657;28;20042;-69
2022/09/11 10:23:54;;;;;;;42.63;28.60;;;;;;;20.45;100.00;101925.44;4980520;28;20038;-70
2022/09/11 10:26:27;;;;;;;41.50;26.55;;;;;;;20.28;100.00;101920.63;4977599;28;20054;-69
2022/09/11 10:28:58;;;;;;;44.35;28.23;;;;;;;20.87;100.00;101920.78;4976802;28;20042;-69
2022/09/11 10:31:25;;;;;;;43.58;28.05;;;;;;;20.24;100.00;101927.34;4979371;28;20038;-69
2022/09/11 10:33:55;;;;;;;45.80;28.30;;;;;;;20.37;100.00;101927.97;4977588;28;20442;-69
2022/09/11 10:36:23;;;;;;;44.38;28.45;;;;;;;20.52;100.00;101931.22;4967765;28;20061;-69
2022/09/11 10:38:49;;;;;;;41.60;26.58;;;;;;;21.21;100.00;101920.47;4974362;28;20043;-69
2022/09/11 10:48:54;;;;;;;43.88;21.30;;;;;;;20.73;98.59;101923.03;4977920;28;20113;-70
2022/09/11 10:51:24;;;;;;;30.55;19.00;;;;;;;21.55;92.21;101907.38;4982758;28;20042;-70
2022/09/11 10:54:21;;;;;;;34.08;22.60;;;;;;;21.87;95.20;101920.66;4976016;28;20069;-69
2022/09/11 10:56:59;;;;;;;30.42;20.13;;;;;;;22.74;91.94;101914.13;4978574;28;20061;-69
2022/09/11 10:59:33;;;;;;;27.85;18.33;;;;;;;23.11;87.95;101911.41;4981279;28;20567;-70
2022/09/11 11:01:58;;;;;;;28.10;20.25;;;;;;;22.30;90.25;101910.31;4983759;28;20038;-70
2022/09/11 11:04:28;;;;;;;31.40;21.27;;;;;;;22.54;92.06;101920.66;4976702;28;20368;-70
2022/09/11 11:07:32;;;;;;;31.00;20.50;;;;;;;22.22;90.76;101911.03;4972920;28;20042;-70
2022/09/11 11:10:26;;;;;;;28.75;20.40;;;;;;;21.25;95.20;101918.34;4929159;28;20046;-70
2022/09/11 11:13:13;;;;;;;35.50;20.92;;;;;;;21.15;95.93;101918.31;4915271;28;20180;-69
2022/09/11 11:16:09;;;;;;;35.47;20.45;;;;;;;21.84;91.24;101915.53;4949422;28;20042;-69
2022/09/11 11:19:14;;;;;;;32.10;19.80;;;;;;;21.29;90.27;101920.63;4945251;28;20058;-70
2022/09/11 11:22:26;;;;;;;32.22;19.77;;;;;;;21.72;97.13;101922.94;4940299;29;20039;-70
2022/09/11 11:25:20;;;;;;;32.42;20.73;;;;;;;21.65;92.04;101918.25;4919544;29;20048;-69
2022/09/11 11:28:02;;;;;;;25.50;18.48;;;;;;;21.14;90.25;101916.59;4904207;29;20106;-69
2022/09/11 11:30:46;;;;;;;33.42;18.42;;;;;;;21.26;89.29;101915.47;4915591;29;20047;-69
2022/09/11 11:33:11;;;;;;;26.48;18.65;;;;;;;21.56;91.23;101919.09;4880942;29;20074;-70
2022/09/11 11:35:59;;;;;;;24.10;17.15;;;;;;;22.54;90.92;101920.66;4920588;29;20503;-70